Latest Coastal Weather Observations for Port Fairy

IDV60701

Issued at 8:52 pm EST Saturday 25 June 2022 (issued every 10 minutes, with the page automatically refreshed every 10 minutes)

About coastal observations | Map of coastal stations | Coastal observations for VIC | Marine services | Other Formats
Station Details ID: 090175 Name: PORT FAIRY AWS Lat: -38.39 Lon: 142.23 Height: 10.0 m
Data from the previous 72 hours. | See also: Recent months at Port Fairy
Date/Time
EST
Wind Sea
Height
m
Swell Vis
km
Cloud Weather Temp
°C
Press
MSL
hPa
Rain since
9am
mm
Dir  Spd
kts
Gust
kts
Height
m
Period
s
Dir
25/08:30pm NNW 9 14 - - - - - - - 11.8 1018.0 0.0
25/08:00pm NNW 9 13 - - - - - - - 11.6 1017.9 0.0
25/07:30pm NNW 7 11 - - - - - - - 11.7 1017.7 0.0
25/07:00pm NNW 7 10 - - - - - - - 11.9 1017.6 0.0
25/06:30pm NNW 6 10 - - - - - - - 11.7 1017.3 0.0
25/06:00pm NW 8 11 - - - - - - - 12.0 1017.2 0.0
25/05:30pm NW 7 11 - - - - - - - 12.8 1016.9 0.0
25/05:00pm NNW 7 10 - - - - - - - 13.4 1016.5 0.0
25/04:30pm NW 9 15 - - - - - - - 14.3 1016.4 0.0
25/04:00pm NW 9 15 - - - - - - - 14.7 1016.4 0.0
25/03:30pm NW 9 15 - - - - - - - 14.9 1016.3 0.0
25/03:00pm NW 9 16 - - - - - - - 15.0 1016.4 0.0
25/02:30pm NW 12 18 - - - - - - - 14.9 1016.6 0.0
25/02:00pm NW 11 17 - - - - - - - 14.9 1016.9 0.0
25/01:30pm NW 11 19 - - - - - - - 14.9 1017.0 0.0
25/01:00pm NW 11 19 - - - - - - - 15.4 1017.0 0.0
25/12:30pm NW 13 19 - - - - - - - 14.9 1017.2 0.0
25/12:00pm NW 12 19 - - - - - - - 14.6 1017.5 0.0
25/11:30am NW 9 16 - - - - - - - 13.3 1017.9 0.0
25/11:00am NW 11 17 - - - - - - - 13.1 1017.9 0.0
25/10:30am NNW 10 15 - - - - - - - 12.9 1017.8 0.0
25/10:00am NNW 10 16 - - - - - - - 11.7 1017.5 0.0
25/09:30am NNW 11 18 - - - - - - - 10.5 1017.2 0.0
25/09:00am NNW 9 15 - - - - - - - 9.7 1017.1 1.2
25/08:30am NNW 9 14 - - - - - - - 8.9 1016.9 1.2
25/08:00am NNW 10 14 - - - - - - - 8.8 1017.0 1.2
25/07:30am NNW 9 14 - - - - - - - 8.4 1016.7 1.2
25/07:00am NNW 8 13 - - - - - - - 8.6 1016.4 1.2
25/06:30am NNW 8 13 - - - - - - - 8.2 1016.0 1.2
25/06:00am NNW 8 11 - - - - - - - 8.1 1015.9 1.2
25/05:30am NNW 8 11 - - - - - - - 8.2 1015.7 1.2
25/05:00am NNW 7 11 - - - - - - - 8.3 1015.7 1.2
25/04:30am NNW 7 11 - - - - - - - 8.4 1015.4 1.2
25/04:00am NNW 7 12 - - - - - - - 8.8 1015.3 1.2
25/03:30am NNW 8 13 - - - - - - - 8.7 1015.5 1.2
25/03:00am NNW 9 13 - - - - - - - 8.4 1015.5 1.2
25/02:30am NNW 8 12 - - - - - - - 8.5 1015.6 1.2
25/02:00am NNW 7 12 - - - - - - - 8.7 1015.5 1.2
25/01:30am NNW 8 13 - - - - - - - 8.7 1015.5 1.2
25/01:00am NNW 9 13 - - - - - - - 8.9 1015.7 1.2
25/12:30am NNW 9 14 - - - - - - - 9.0 1016.0 1.2
25/12:00am NNW 7 12 - - - - - - - 9.0 1016.1 1.2
 
Date/Time
EST
Wind Sea
Height
m
Swell Vis
km
Cloud Weather Temp
°C
Press
MSL
hPa
Rain since
9am
mm
Dir  Spd
kts
Gust
kts
Height
m
Period
s
Dir
24/11:30pm NNW 8 15 - - - - - - - 9.2 1016.1 1.2
24/11:00pm NNW 8 12 - - - - - - - 9.4 1016.1 1.2
24/10:30pm NNW 7 10 - - - - - - - 9.4 1016.2 1.2
24/10:00pm NNW 7 11 - - - - - - - 9.7 1016.3 1.2
24/09:30pm NNW 7 10 - - - - - - - 9.3 1016.4 1.2
24/09:00pm NNW 6 9 - - - - - - - 9.1 1016.6 1.2
24/08:30pm NNW 4 6 - - - - - - - 9.6 1016.5 1.2
24/08:00pm NNW 5 7 - - - - - - - 9.9 1016.6 1.2
24/07:30pm NNW 6 8 - - - - - - - 10.1 1016.3 1.2
24/07:00pm NNW 5 8 - - - - - - - 10.3 1016.1 1.2
24/06:30pm NW 7 13 - - - - - - - 11.2 1015.9 1.0
24/06:00pm NNW 5 7 - - - - - - - 11.5 1015.5 1.0
24/05:30pm WNW 5 8 - - - - - - - 12.2 1015.4 1.0
24/05:00pm W 6 10 - - - - - - - 12.2 1015.2 1.0
24/04:30pm WNW 6 11 - - - - - - - 12.5 1015.1 1.0
24/04:00pm W 11 16 - - - - - - - 13.1 1015.0 1.0
24/03:30pm W 9 14 - - - - - - - 13.8 1014.8 1.0
24/03:00pm W 11 16 - - - - - - - 13.7 1014.7 1.0
24/02:30pm WSW 12 19 - - - - - - - 14.2 1014.6 1.0
24/02:00pm WSW 15 19 - - - - - - - 13.6 1014.5 1.0
24/01:30pm W 12 17 - - - - - - - 13.7 1014.7 1.0
24/01:00pm W 13 18 - - - - - - - 13.9 1014.9 1.0
24/12:30pm W 12 18 - - - - - - - 13.1 1015.1 1.0
24/12:01pm W 16 27 - - - - - - - 11.9 1015.4 1.0
24/12:00pm W 17 27 - - - - - - Rain 11.8 1015.4 1.0
24/11:50am WSW 15 29 - - - - - - - 12.9 1015.3 0.8
24/11:30am WNW 5 9 - - - - - - - 13.5 1015.2 0.8
24/11:00am NW 7 11 - - - - - - - 13.4 1015.1 0.8
24/10:30am WNW 5 9 - - - - - - - 12.7 1014.9 0.8
24/10:00am NW 6 12 - - - - - - - 12.3 1014.8 0.8
24/09:35am W 15 27 - - - - - - - 11.8 1014.7 0.8
24/09:30am W 13 27 - - - - - - - 12.5 1014.7 0.8
24/09:00am W 12 18 - - - - - - - 12.5 1014.1 12.2
24/08:30am W 13 23 - - - - - - - 12.0 1013.9 12.2
24/08:00am W 12 18 - - - - - - - 11.3 1013.7 12.2
24/07:51am W 15 27 - - - - - - - 11.2 1013.6 12.2
24/07:30am W 11 20 - - - - - - - 11.7 1013.3 12.0
24/07:00am W 14 19 - - - - - - - 11.9 1012.8 12.0
24/06:30am W 14 19 - - - - - - - 11.8 1012.5 12.0
24/06:00am W 13 20 - - - - - - Recent precip. 11.8 1012.2 12.0
24/05:30am WSW 17 23 - - - - - - - 11.9 1011.9 12.0
24/05:17am W 10 23 - - - - - - - 11.3 1011.9 11.8
24/05:00am NW 7 11 - - - - - - - 11.6 1011.4 11.0
24/04:30am NW 8 13 - - - - - - - 11.8 1011.3 11.0
24/04:00am NW 7 13 - - - - - - - 11.8 1011.1 11.0
24/03:30am NW 6 10 - - - - - - - 11.9 1011.1 10.8
24/03:00am NW 6 9 - - - - - - - 11.9 1011.0 10.8
24/02:30am NNW 6 10 - - - - - - - 11.8 1010.8 10.8
24/02:00am NNW 7 11 - - - - - - - 12.0 1010.6 10.8
24/01:30am NNW 7 11 - - - - - - - 12.1 1010.6 10.8
24/01:00am NW 5 8 - - - - - - - 12.2 1011.2 10.4
24/12:30am NW 5 9 - - - - - - - 12.2 1011.2 9.0
24/12:00am W 10 15 - - - - - - Rain 12.2 1011.8 8.4
 
Date/Time
EST
Wind Sea
Height
m
Swell Vis
km
Cloud Weather Temp
°C
Press
MSL
hPa
Rain since
9am
mm
Dir  Spd
kts
Gust
kts
Height
m
Period
s
Dir
23/11:30pm W 11 15 - - - - - - - 12.2 1011.7 4.8
23/11:00pm WNW 14 24 - - - - - - - 12.6 1012.0 2.6
23/10:30pm NW 14 21 - - - - - - - 14.6 1011.1 0.0
23/10:00pm NNW 12 17 - - - - - - - 14.2 1011.1 0.0
23/09:30pm NNW 11 18 - - - - - - - 14.1 1010.8 0.0
23/09:00pm NNW 12 19 - - - - - - - 14.1 1011.0 0.0
23/08:30pm NNW 9 15 - - - - - - - 14.2 1011.6 0.0
23/08:00pm NNW 11 17 - - - - - - - 14.4 1011.8 0.0
23/07:30pm NNW 9 15 - - - - - - - 14.2 1012.0 0.0
23/07:00pm NNW 9 14 - - - - - - - 14.1 1012.3 0.0
23/06:30pm NNW 8 15 - - - - - - - 14.1 1012.5 0.0
23/06:00pm NNW 8 14 - - - - - - - 14.2 1012.9 0.0
23/05:30pm NNW 9 14 - - - - - - - 14.4 1013.0 0.0
23/05:00pm NNW 8 14 - - - - - - - 14.8 1013.3 0.0
23/04:30pm NNW 9 14 - - - - - - - 15.2 1013.4 0.0
23/04:00pm NNW 8 15 - - - - - - - 15.5 1013.6 0.0
23/03:30pm NNW 9 16 - - - - - - - 15.7 1013.6 0.0
23/03:00pm NNW 11 21 - - - - - - - 15.9 1013.9 0.0
23/02:30pm NNW 10 16 - - - - - - - 16.1 1014.1 0.0
23/02:00pm NNW 12 19 - - - - - - - 16.3 1014.5 0.0
23/01:30pm NNW 10 19 - - - - - - - 16.3 1014.9 0.0
23/01:00pm NNW 10 18 - - - - - - - 15.3 1015.4 0.0
23/12:30pm NNW 11 17 - - - - - - - 15.4 1016.2 0.0
23/12:00pm NNW 13 21 - - - - - - - 15.2 1016.6 0.0
23/11:30am NNW 12 22 - - - - - - - 14.8 1017.2 0.0
23/11:17am NNW 15 25 - - - - - - - 14.5 1017.2 0.0
23/11:00am NNW 14 22 - - - - - - - 14.2 1017.6 0.0
23/10:30am NNW 12 22 - - - - - - - 13.8 1018.0 0.0
23/10:00am NNW 10 17 - - - - - - - 13.6 1018.2 0.0
23/09:30am NNW 9 16 - - - - - - - 13.0 1018.4 0.0
23/09:00am NNW 11 16 - - - - - - - 12.7 1018.8 0.0
23/08:30am NNW 11 17 - - - - - - - 12.4 1019.0 0.0
23/08:00am NNW 8 14 - - - - - - - 12.2 1018.9 0.0
23/07:30am NNW 10 16 - - - - - - - 12.3 1019.1 0.0
23/07:00am NNW 8 12 - - - - - - - 12.2 1019.0 0.0
23/06:30am NNW 8 13 - - - - - - - 12.2 1019.0 0.0
23/06:00am NNW 8 14 - - - - - - - 12.0 1018.9 0.0
23/05:30am NNW 8 14 - - - - - - - 11.8 1019.0 0.0
23/05:00am NNW 9 13 - - - - - - - 11.8 1019.0 0.0
23/04:30am NNW 9 13 - - - - - - - 12.0 1019.2 0.0
23/04:00am NNW 10 16 - - - - - - - 12.2 1019.1 0.0
23/03:30am NNW 8 15 - - - - - - - 12.2 1019.3 0.0
23/03:00am NNW 9 15 - - - - - - - 12.5 1019.7 0.0
23/02:30am NNW 8 14 - - - - - - - 12.5 1020.0 0.0
23/02:00am NNW 8 13 - - - - - - - 12.3 1020.4 0.0
23/01:30am NNW 7 16 - - - - - - - 12.0 1020.7 0.0
23/01:00am NNW 6 9 - - - - - - - 11.6 1020.9 0.0
23/12:30am NNW 6 9 - - - - - - - 11.9 1021.2 0.0
23/12:00am NNW 7 12 - - - - - - - 12.3 1021.5 0.0
 
Date/Time
EST
Wind Sea
Height
m
Swell Vis
km
Cloud Weather Temp
°C
Press
MSL
hPa
Rain since
9am
mm
Dir  Spd
kts
Gust
kts
Height
m
Period
s
Dir
22/11:30pm NNW 7 12 - - - - - - - 12.4 1021.4 0.0
22/11:00pm NNW 8 11 - - - - - - - 12.2 1021.9 0.0
22/10:30pm NNW 6 10 - - - - - - - 12.0 1021.7 0.0
22/10:00pm NNW 7 11 - - - - - - - 11.9 1022.0 0.0
22/09:30pm NNW 6 10 - - - - - - - 11.7 1022.0 0.0
22/09:00pm NNW 6 9 - - - - - - - 11.4 1022.3 0.0

Other formats

Comma delimited format used in spreadsheet applications
http://www.bom.gov.au/fwo/IDV60701/IDV60701.94830.axf

JavaScript Object Notation format (JSON) in row-major order
http://www.bom.gov.au/fwo/IDV60701/IDV60701.94830.json

Data quality

Most of these data are generated automatically and are frequently updated. Quality checks on data are not normally performed. It is possible for incorrect values to appear. Refer to information at About Latest Weather Observations and please check the disclaimer before using these data.